Adams, Oklahoma
Current Conditions -  °F | °C
As of 6:55 AM on Friday 19 Dec 2014 (Local Time) from KLBL Reporting Station
Overcast Overcast  
Wind Chill: 36°   Ceiling: 400
Heat Index: 36°   Visibility: 8mi
Dew Point: 32°   Wind: 3mph
Humidity: 87%   Direction: 200°SSW
Pressure: 30.14"   Gusts: NA
Location:  36.76°N, 101.08°W
Report Text: KLBL 191255Z AUTO 20003KT 8SM BKN004 OVC010 02/00 A3014 RMK AO1
Loading
Personal Weather Stations






























Interactive Weather Map New forecast layout! Learn more

10-Day Weather Forecast

Advertisements
Track Severe Weather on mobile